createdAt,value
2019-03-18T00:00:08.174Z,9.10
2019-03-18T00:00:39.373Z,7.67
2019-03-18T00:01:10.588Z,8.30
2019-03-18T00:01:41.807Z,8.13
2019-03-18T00:02:13.023Z,8.00
2019-03-18T00:02:44.282Z,8.05
2019-03-18T00:03:15.499Z,7.62
2019-03-18T00:03:46.712Z,7.67
2019-03-18T00:04:17.935Z,7.42
2019-03-18T00:04:49.133Z,8.08
2019-03-18T00:05:20.339Z,8.15
2019-03-18T00:05:51.548Z,8.48
2019-03-18T00:06:22.780Z,8.38
2019-03-18T00:06:53.987Z,8.20
2019-03-18T00:07:25.241Z,8.65
2019-03-18T00:07:56.433Z,8.88
2019-03-18T00:08:27.640Z,8.10
2019-03-18T00:08:58.875Z,8.40
2019-03-18T00:09:30.063Z,9.35
2019-03-18T00:10:01.324Z,9.68
2019-03-18T00:10:32.526Z,9.95
2019-03-18T00:11:03.738Z,10.50
2019-03-18T00:11:34.933Z,10.03
2019-03-18T00:12:06.145Z,10.10
2019-03-18T00:12:37.371Z,9.30
2019-03-18T00:13:08.575Z,8.25
2019-03-18T00:13:39.813Z,8.53
2019-03-18T00:14:10.998Z,7.15
2019-03-18T00:14:42.196Z,6.03
2019-03-18T00:15:13.454Z,6.33
2019-03-18T00:15:44.710Z,5.83
2019-03-18T00:16:15.900Z,6.62
2019-03-18T00:16:47.116Z,7.67
2019-03-18T00:17:18.349Z,7.62
2019-03-18T00:17:49.555Z,7.58
2019-03-18T00:18:20.752Z,8.48
2019-03-18T00:18:52.019Z,9.05
2019-03-18T00:19:23.200Z,8.55
2019-03-18T00:19:54.416Z,6.97
2019-03-18T00:20:25.625Z,6.22
2019-03-18T00:20:56.834Z,6.10
2019-03-18T00:21:28.033Z,6.85
2019-03-18T00:21:59.234Z,6.30
2019-03-18T00:22:30.452Z,6.53
2019-03-18T00:23:01.672Z,6.45
2019-03-18T00:23:32.859Z,7.45
2019-03-18T00:24:04.062Z,5.67
2019-03-18T00:24:35.251Z,6.33
2019-03-18T00:25:06.492Z,7.35
2019-03-18T00:25:37.741Z,7.67
2019-03-18T00:26:08.940Z,6.35
2019-03-18T00:26:40.138Z,7.00
2019-03-18T00:27:11.390Z,6.78
2019-03-18T00:27:42.585Z,8.18
2019-03-18T00:28:13.814Z,6.70
2019-03-18T00:28:45.000Z,6.42
2019-03-18T00:29:16.213Z,6.15
2019-03-18T00:29:47.407Z,6.78
2019-03-18T00:30:18.621Z,6.08
2019-03-18T00:30:49.834Z,6.15
2019-03-18T00:31:21.025Z,6.20
2019-03-18T00:31:53.150Z,6.60
2019-03-18T00:32:24.355Z,6.33
2019-03-18T00:32:55.608Z,7.47
2019-03-18T00:33:26.814Z,10.30
2019-03-18T00:33:58.015Z,9.28
2019-03-18T00:34:29.229Z,8.35
2019-03-18T00:35:00.432Z,10.28
2019-03-18T00:35:31.669Z,11.38
2019-03-18T00:36:02.869Z,11.22
2019-03-18T00:36:34.096Z,10.00
2019-03-18T00:37:05.307Z,10.30
2019-03-18T00:37:36.506Z,8.93
2019-03-18T00:38:07.708Z,7.70
2019-03-18T00:38:38.905Z,8.25
2019-03-18T00:39:10.096Z,8.50
2019-03-18T00:39:41.343Z,7.97
2019-03-18T00:40:12.612Z,8.10
2019-03-18T00:40:43.845Z,7.30
2019-03-18T00:41:15.039Z,7.87
2019-03-18T00:41:46.247Z,7.53
2019-03-18T00:42:17.451Z,7.55
2019-03-18T00:42:48.655Z,7.47
2019-03-18T00:43:19.859Z,8.00
2019-03-18T00:43:51.057Z,7.97
2019-03-18T00:44:22.308Z,8.30
2019-03-18T00:44:53.510Z,8.78
2019-03-18T00:45:24.708Z,8.73
2019-03-18T00:45:55.913Z,8.45
2019-03-18T00:46:27.145Z,7.80
2019-03-18T00:46:58.324Z,8.15
2019-03-18T00:47:29.525Z,8.90
2019-03-18T00:48:00.775Z,9.00
2019-03-18T00:48:31.975Z,8.48
2019-03-18T00:49:03.169Z,8.90
2019-03-18T00:49:34.392Z,8.60
2019-03-18T00:50:05.591Z,7.90
2019-03-18T00:50:36.851Z,8.85
2019-03-18T00:51:08.058Z,8.50
2019-03-18T00:51:39.265Z,10.68
2019-03-18T00:52:10.480Z,9.93
2019-03-18T00:52:41.830Z,9.60
2019-03-18T00:53:13.941Z,9.18
2019-03-18T00:53:45.141Z,9.13
2019-03-18T00:54:16.381Z,9.30
2019-03-18T00:54:47.564Z,9.20
2019-03-18T00:55:18.780Z,9.25
2019-03-18T00:55:51.758Z,9.30
2019-03-18T00:56:22.990Z,10.55
2019-03-18T00:56:54.202Z,9.65
2019-03-18T00:57:25.418Z,8.13
2019-03-18T00:57:56.633Z,8.18
2019-03-18T00:58:27.834Z,8.60
2019-03-18T00:58:59.059Z,8.43
2019-03-18T00:59:30.271Z,7.90
2019-03-18T01:00:01.506Z,8.63
2019-03-18T01:00:32.709Z,10.63
2019-03-18T01:01:03.989Z,11.73
2019-03-18T01:01:35.191Z,11.08
2019-03-18T01:02:06.461Z,11.88
2019-03-18T01:02:37.741Z,12.15
2019-03-18T01:03:08.914Z,11.28
2019-03-18T01:03:40.120Z,10.98
2019-03-18T01:04:11.409Z,11.90
2019-03-18T01:04:42.575Z,12.10
2019-03-18T01:05:13.774Z,12.28
2019-03-18T01:05:45.011Z,12.68
2019-03-18T01:06:16.251Z,12.13
2019-03-18T01:06:47.520Z,11.33
2019-03-18T01:07:18.723Z,11.40
2019-03-18T01:07:49.928Z,9.45
2019-03-18T01:08:21.122Z,9.80
2019-03-18T01:08:52.334Z,9.83
2019-03-18T01:09:23.544Z,9.88
2019-03-18T01:09:54.736Z,9.78
2019-03-18T01:10:25.980Z,9.53
2019-03-18T01:10:57.183Z,10.00
2019-03-18T01:11:28.386Z,9.15
2019-03-18T01:11:59.634Z,8.80
2019-03-18T01:12:30.844Z,8.63
2019-03-18T01:13:02.060Z,8.28
2019-03-18T01:13:33.268Z,9.18
2019-03-18T01:14:04.471Z,9.90
2019-03-18T01:14:35.692Z,9.63
2019-03-18T01:15:06.899Z,10.32
2019-03-18T01:15:38.143Z,11.00
2019-03-18T01:16:09.348Z,11.35
2019-03-18T01:16:40.625Z,10.38
2019-03-18T01:17:11.839Z,10.13
2019-03-18T01:17:43.062Z,9.90
2019-03-18T01:18:15.369Z,9.58
2019-03-18T01:18:46.567Z,10.80
2019-03-18T01:19:17.775Z,11.63
2019-03-18T01:19:49.029Z,11.70
2019-03-18T01:20:20.245Z,12.05
2019-03-18T01:20:51.446Z,12.10
2019-03-18T01:21:22.653Z,12.75
2019-03-18T01:21:53.856Z,12.60
2019-03-18T01:22:25.056Z,12.93
2019-03-18T01:22:56.271Z,13.38
2019-03-18T01:23:27.547Z,13.03
2019-03-18T01:23:58.762Z,12.82
2019-03-18T01:24:30.004Z,12.90
2019-03-18T01:25:01.241Z,13.15
2019-03-18T01:25:32.449Z,12.40
2019-03-18T01:26:03.644Z,12.63
2019-03-18T01:26:34.844Z,12.80
2019-03-18T01:27:06.069Z,13.72
2019-03-18T01:27:37.294Z,12.33
2019-03-18T01:28:08.497Z,12.75
2019-03-18T01:28:39.705Z,13.18
2019-03-18T01:29:10.922Z,12.07
2019-03-18T01:29:42.182Z,11.10
2019-03-18T01:30:13.387Z,12.13
2019-03-18T01:30:44.597Z,12.85
2019-03-18T01:31:15.805Z,13.48
2019-03-18T01:31:47.024Z,12.53
2019-03-18T01:32:18.250Z,12.63
2019-03-18T01:32:49.454Z,13.70
2019-03-18T01:33:20.660Z,13.22
2019-03-18T01:33:51.863Z,13.85
2019-03-18T01:34:23.122Z,14.03
2019-03-18T01:34:54.322Z,13.05
2019-03-18T01:35:25.523Z,14.30
2019-03-18T01:35:56.723Z,14.03
2019-03-18T01:36:27.922Z,13.68
2019-03-18T01:36:59.141Z,14.35
2019-03-18T01:37:30.346Z,11.97
2019-03-18T01:38:01.616Z,13.48
2019-03-18T01:38:32.810Z,13.50
2019-03-18T01:39:04.014Z,13.62
2019-03-18T01:39:35.262Z,13.50
2019-03-18T01:40:06.471Z,13.93
2019-03-18T01:40:37.679Z,13.68
2019-03-18T01:41:08.878Z,14.87
2019-03-18T01:41:40.085Z,13.50
2019-03-18T01:42:11.291Z,14.25
2019-03-18T01:42:42.537Z,15.00
2019-03-18T01:43:13.732Z,15.72
2019-03-18T01:43:44.946Z,15.13
2019-03-18T01:44:16.159Z,15.05
2019-03-18T01:44:47.407Z,15.95
2019-03-18T01:45:18.622Z,15.65
2019-03-18T01:45:49.840Z,16.00
2019-03-18T01:46:21.046Z,15.43
2019-03-18T01:46:52.246Z,16.40
2019-03-18T01:47:23.458Z,15.83
2019-03-18T01:47:54.723Z,16.17
2019-03-18T01:48:25.983Z,15.75
2019-03-18T01:48:57.182Z,15.20
2019-03-18T01:49:28.439Z,15.30
2019-03-18T01:49:59.735Z,14.68
2019-03-18T01:50:30.931Z,15.90
2019-03-18T01:51:02.245Z,15.60
2019-03-18T01:51:33.456Z,16.62
2019-03-18T01:52:04.667Z,15.75
2019-03-18T01:52:35.877Z,16.20
2019-03-18T01:53:07.074Z,16.30
2019-03-18T01:53:38.294Z,15.70
2019-03-18T01:54:09.526Z,15.38
2019-03-18T01:54:40.721Z,16.27
2019-03-18T01:55:11.937Z,16.07
2019-03-18T01:55:43.180Z,15.57
2019-03-18T01:56:14.374Z,14.83
2019-03-18T01:56:45.584Z,15.20
2019-03-18T01:57:16.793Z,14.47
2019-03-18T01:57:47.991Z,13.98
2019-03-18T01:58:19.191Z,14.03
2019-03-18T01:58:50.422Z,14.68
2019-03-18T01:59:21.623Z,14.58
2019-03-18T01:59:52.854Z,14.07
2019-03-18T02:00:24.050Z,14.28
2019-03-18T02:00:55.284Z,14.43
2019-03-18T02:01:26.477Z,14.75
2019-03-18T02:01:57.685Z,14.33
2019-03-18T02:02:28.889Z,14.75
2019-03-18T02:03:00.112Z,14.83
2019-03-18T02:03:31.304Z,13.20
2019-03-18T02:04:02.528Z,13.58
2019-03-18T02:04:33.729Z,13.20
2019-03-18T02:05:04.927Z,13.43
2019-03-18T02:05:36.176Z,13.08
2019-03-18T02:06:07.376Z,12.33
2019-03-18T02:06:38.574Z,12.47
2019-03-18T02:07:09.784Z,13.18
2019-03-18T02:07:40.998Z,12.85
2019-03-18T02:08:12.247Z,13.30
2019-03-18T02:08:43.474Z,13.20
2019-03-18T02:09:14.698Z,12.55
2019-03-18T02:09:45.902Z,12.82
2019-03-18T02:10:17.111Z,12.28
2019-03-18T02:10:48.351Z,11.63
2019-03-18T02:11:19.585Z,11.68
2019-03-18T02:11:50.801Z,12.45
2019-03-18T02:12:22.006Z,11.70
2019-03-18T02:12:53.213Z,12.65
2019-03-18T02:13:24.411Z,11.90
2019-03-18T02:13:55.637Z,12.05
2019-03-18T02:14:26.838Z,12.20
2019-03-18T02:14:58.050Z,12.00
2019-03-18T02:15:29.298Z,12.15
2019-03-18T02:16:00.511Z,11.45
2019-03-18T02:16:31.729Z,11.65
2019-03-18T02:17:02.924Z,11.70
2019-03-18T02:17:34.124Z,11.48
2019-03-18T02:18:05.420Z,10.85
2019-03-18T02:18:36.643Z,10.08
2019-03-18T02:19:07.877Z,11.45
2019-03-18T02:19:39.073Z,10.45
2019-03-18T02:20:10.286Z,10.23
2019-03-18T02:20:41.501Z,11.22
2019-03-18T02:21:12.727Z,10.82
2019-03-18T02:21:43.921Z,11.38
2019-03-18T02:22:15.129Z,10.90
2019-03-18T02:22:46.327Z,11.20
2019-03-18T02:23:17.556Z,10.90
2019-03-18T02:23:48.763Z,11.25
2019-03-18T02:24:19.967Z,10.65
2019-03-18T02:24:51.165Z,10.45
2019-03-18T02:25:22.439Z,10.90
2019-03-18T02:25:53.643Z,11.05
2019-03-18T02:26:24.838Z,10.78
2019-03-18T02:26:56.029Z,10.40
2019-03-18T02:27:27.232Z,10.65
2019-03-18T02:27:58.430Z,10.08
2019-03-18T02:28:29.648Z,10.65
2019-03-18T02:29:00.851Z,11.70
2019-03-18T02:29:32.046Z,11.65
2019-03-18T02:30:03.242Z,11.40
2019-03-18T02:30:34.494Z,10.80
2019-03-18T02:31:05.692Z,10.95
2019-03-18T02:31:36.941Z,10.60
2019-03-18T02:32:08.114Z,10.85
2019-03-18T02:32:39.320Z,10.50
2019-03-18T02:33:10.564Z,11.08
2019-03-18T02:33:41.764Z,9.83
2019-03-18T02:34:12.959Z,10.18
2019-03-18T02:34:44.162Z,10.65
2019-03-18T02:35:15.346Z,9.85
2019-03-18T02:35:46.567Z,10.20
2019-03-18T02:36:17.763Z,9.85
2019-03-18T02:36:49.038Z,9.70
2019-03-18T02:37:20.234Z,9.65
2019-03-18T02:37:51.433Z,10.03
2019-03-18T02:38:22.636Z,10.23
2019-03-18T02:38:53.843Z,9.83
2019-03-18T02:39:25.104Z,9.75
2019-03-18T02:39:56.348Z,10.10
2019-03-18T02:40:27.554Z,9.85
2019-03-18T02:40:58.748Z,9.63
2019-03-18T02:41:29.985Z,9.73
2019-03-18T02:42:01.213Z,9.03
2019-03-18T02:42:32.440Z,9.65
2019-03-18T02:43:03.637Z,9.73
2019-03-18T02:43:34.844Z,9.28
2019-03-18T02:44:06.092Z,9.13
2019-03-18T02:44:37.296Z,9.83
2019-03-18T02:45:08.500Z,10.03
2019-03-18T02:45:39.708Z,9.88
2019-03-18T02:46:11.200Z,10.13
2019-03-18T02:46:42.615Z,10.08
2019-03-18T02:47:13.826Z,10.18
2019-03-18T02:47:45.038Z,10.43
2019-03-18T02:48:16.287Z,9.53
2019-03-18T02:48:47.485Z,9.83
2019-03-18T02:49:18.710Z,9.68
2019-03-18T02:49:49.924Z,10.35
2019-03-18T02:50:21.212Z,10.13
2019-03-18T02:50:52.407Z,10.25
2019-03-18T02:51:23.617Z,9.80
2019-03-18T02:51:54.826Z,10.63
2019-03-18T02:52:26.038Z,10.15
2019-03-18T02:52:57.244Z,10.90
2019-03-18T02:53:28.506Z,10.38
2019-03-18T02:53:59.707Z,10.48
2019-03-18T02:54:30.932Z,10.30
2019-03-18T02:55:02.173Z,11.80
2019-03-18T02:55:33.432Z,10.68
2019-03-18T02:56:04.630Z,11.38
2019-03-18T02:56:35.836Z,10.50
2019-03-18T02:57:07.044Z,11.35
2019-03-18T02:57:38.287Z,11.22
2019-03-18T02:58:09.485Z,10.80
2019-03-18T02:58:40.685Z,10.00
2019-03-18T02:59:11.895Z,10.15
2019-03-18T02:59:43.103Z,10.65
2019-03-18T03:00:14.309Z,11.08
2019-03-18T03:00:45.551Z,11.00
2019-03-18T03:01:16.749Z,11.28
2019-03-18T03:01:48.005Z,11.03
2019-03-18T03:02:19.180Z,11.35
2019-03-18T03:02:50.447Z,11.40
2019-03-18T03:03:21.669Z,10.48
2019-03-18T03:03:52.872Z,10.28
2019-03-18T03:04:24.125Z,10.35
2019-03-18T03:04:55.320Z,10.88
2019-03-18T03:05:26.544Z,10.15
2019-03-18T03:05:57.735Z,10.68
2019-03-18T03:06:28.935Z,10.32
2019-03-18T03:07:00.145Z,11.12
2019-03-18T03:07:31.412Z,10.45
2019-03-18T03:08:02.632Z,10.53
2019-03-18T03:08:33.841Z,11.12
2019-03-18T03:09:05.028Z,11.93
2019-03-18T03:09:36.344Z,10.35
2019-03-18T03:10:07.505Z,9.70
2019-03-18T03:10:38.719Z,10.13
2019-03-18T03:11:09.921Z,10.25
2019-03-18T03:11:41.140Z,10.40
2019-03-18T03:12:12.346Z,10.40
2019-03-18T03:12:43.604Z,9.73
2019-03-18T03:13:14.802Z,10.48
2019-03-18T03:13:46.007Z,10.45
2019-03-18T03:14:17.205Z,10.00
2019-03-18T03:14:48.433Z,11.05
2019-03-18T03:15:19.611Z,10.38
2019-03-18T03:15:50.824Z,10.50
2019-03-18T03:16:27.116Z,10.13
2019-03-18T03:16:55.082Z,10.03
2019-03-18T03:17:26.279Z,9.63
2019-03-18T03:17:57.495Z,9.78
2019-03-18T03:18:28.699Z,9.70
2019-03-18T03:18:59.897Z,9.63
2019-03-18T03:19:31.139Z,8.70
2019-03-18T03:20:02.341Z,9.93
2019-03-18T03:20:33.525Z,9.68
2019-03-18T03:21:04.732Z,9.40
2019-03-18T03:21:35.944Z,9.25
2019-03-18T03:22:07.136Z,8.90
2019-03-18T03:22:38.334Z,9.15
2019-03-18T03:23:09.554Z,9.13
2019-03-18T03:23:40.782Z,9.20
2019-03-18T03:24:12.159Z,9.18
2019-03-18T03:24:43.397Z,9.53
2019-03-18T03:25:14.598Z,9.65
2019-03-18T03:25:45.811Z,10.32
2019-03-18T03:26:17.019Z,10.28
2019-03-18T03:26:48.225Z,9.88
2019-03-18T03:27:19.440Z,10.08
2019-03-18T03:27:50.649Z,10.32
2019-03-18T03:28:21.848Z,10.88
2019-03-18T03:28:53.046Z,10.72
2019-03-18T03:29:24.309Z,10.13
2019-03-18T03:29:55.602Z,11.43
2019-03-18T03:30:26.787Z,10.08
2019-03-18T03:30:57.987Z,10.32
2019-03-18T03:31:29.296Z,10.98
2019-03-18T03:32:00.597Z,10.53
2019-03-18T03:32:31.801Z,11.55
2019-03-18T03:33:03.007Z,10.98
2019-03-18T03:33:34.213Z,11.28
2019-03-18T03:34:05.409Z,11.75
2019-03-18T03:34:36.623Z,11.70
2019-03-18T03:35:07.837Z,11.55
2019-03-18T03:35:39.065Z,10.82
2019-03-18T03:36:10.254Z,11.12
2019-03-18T03:36:41.458Z,10.15
2019-03-18T03:37:12.653Z,11.65
2019-03-18T03:37:43.863Z,11.25
2019-03-18T03:38:15.103Z,11.28
2019-03-18T03:38:46.327Z,11.10
2019-03-18T03:39:17.526Z,10.93
2019-03-18T03:39:48.724Z,11.80
2019-03-18T03:40:19.979Z,10.60
2019-03-18T03:40:51.189Z,10.40
2019-03-18T03:41:22.388Z,11.28
2019-03-18T03:41:53.600Z,10.28
2019-03-18T03:42:24.812Z,10.70
2019-03-18T03:42:56.060Z,10.48
2019-03-18T03:43:27.267Z,11.05
2019-03-18T03:43:58.471Z,12.75
2019-03-18T03:44:29.729Z,11.10
2019-03-18T03:45:00.918Z,11.78
2019-03-18T03:45:32.125Z,11.38
2019-03-18T03:46:03.342Z,12.80
2019-03-18T03:46:43.220Z,12.20
2019-03-18T03:47:07.482Z,13.80
2019-03-18T03:47:38.704Z,12.65
2019-03-18T03:48:09.958Z,12.78
2019-03-18T03:48:41.186Z,12.98
2019-03-18T03:49:12.436Z,12.93
2019-03-18T03:49:43.674Z,13.75
2019-03-18T03:50:14.861Z,14.63
2019-03-18T03:50:46.074Z,13.65
2019-03-18T03:51:17.268Z,13.75
2019-03-18T03:51:48.486Z,15.03
2019-03-18T03:52:19.766Z,15.53
2019-03-18T03:52:50.948Z,14.83
2019-03-18T03:53:22.158Z,14.53
2019-03-18T03:53:53.377Z,14.10
2019-03-18T03:54:24.636Z,13.98
2019-03-18T03:54:55.876Z,14.13
2019-03-18T03:55:27.087Z,14.83
2019-03-18T03:55:58.307Z,14.10
2019-03-18T03:56:29.536Z,15.25
2019-03-18T03:57:00.728Z,14.65
2019-03-18T03:57:31.927Z,14.35
2019-03-18T03:58:03.152Z,14.40
2019-03-18T03:58:34.340Z,14.15
2019-03-18T03:59:05.536Z,14.10
2019-03-18T03:59:36.751Z,14.20
2019-03-18T04:00:08.008Z,14.47
2019-03-18T04:00:39.216Z,13.83
2019-03-18T04:01:10.420Z,13.65
2019-03-18T04:01:41.620Z,14.70
2019-03-18T04:02:12.815Z,14.30
2019-03-18T04:02:44.020Z,15.08
2019-03-18T04:03:15.255Z,15.53
2019-03-18T04:03:46.505Z,14.30
2019-03-18T04:04:17.709Z,14.87
2019-03-18T04:04:48.957Z,14.15
2019-03-18T04:05:20.140Z,15.63
2019-03-18T04:05:52.398Z,16.65
2019-03-18T04:06:23.605Z,16.97
2019-03-18T04:06:54.819Z,18.35
2019-03-18T04:07:26.026Z,17.20
2019-03-18T04:07:57.267Z,17.25
2019-03-18T04:08:28.474Z,18.75
2019-03-18T04:08:59.709Z,19.02
2019-03-18T04:09:30.921Z,19.48
2019-03-18T04:10:02.217Z,19.07
2019-03-18T04:10:33.414Z,19.95
2019-03-18T04:11:08.164Z,21.07
2019-03-18T04:11:38.226Z,21.55
2019-03-18T04:12:09.453Z,20.70
2019-03-18T04:12:40.630Z,19.80
2019-03-18T04:13:11.843Z,22.20
2019-03-18T04:13:43.043Z,22.22
2019-03-18T04:14:14.264Z,21.37
2019-03-18T04:14:45.484Z,20.57
2019-03-18T04:15:16.723Z,21.62
2019-03-18T04:15:47.927Z,22.58
2019-03-18T04:16:19.121Z,22.67
2019-03-18T04:17:01.679Z,21.48
2019-03-18T04:17:23.250Z,21.42
2019-03-18T04:17:54.457Z,20.72
2019-03-18T04:18:25.663Z,19.82
2019-03-18T04:18:56.974Z,19.52
2019-03-18T04:19:28.304Z,17.35
2019-03-18T04:19:59.515Z,16.97
2019-03-18T04:20:30.742Z,16.55
2019-03-18T04:21:01.981Z,17.45
2019-03-18T04:21:33.190Z,17.25
2019-03-18T04:22:04.395Z,16.32
2019-03-18T04:22:35.597Z,16.55
2019-03-18T04:23:06.805Z,17.00
2019-03-18T04:23:38.093Z,18.75
2019-03-18T04:24:09.297Z,18.67
2019-03-18T04:24:40.524Z,18.62
2019-03-18T04:25:11.739Z,18.70
2019-03-18T04:25:42.936Z,17.57
2019-03-18T04:26:14.150Z,17.35
2019-03-18T04:26:45.375Z,16.65
2019-03-18T04:27:16.621Z,17.62
2019-03-18T04:27:47.891Z,18.37
2019-03-18T04:28:19.068Z,20.40
2019-03-18T04:28:50.297Z,19.80
2019-03-18T04:29:21.521Z,19.52
2019-03-18T04:29:52.722Z,19.42
2019-03-18T04:30:23.929Z,20.30
2019-03-18T04:30:55.153Z,20.50
2019-03-18T04:31:26.345Z,20.05
2019-03-18T04:31:57.600Z,20.35
2019-03-18T04:32:28.805Z,20.92
2019-03-18T04:33:00.064Z,19.30
2019-03-18T04:33:31.275Z,21.68
2019-03-18T04:34:02.543Z,21.87
2019-03-18T04:34:33.763Z,20.30
2019-03-18T04:35:04.962Z,21.93
2019-03-18T04:35:36.201Z,22.10
2019-03-18T04:36:07.450Z,20.77
2019-03-18T04:36:38.645Z,19.73
2019-03-18T04:37:09.863Z,19.60
2019-03-18T04:37:41.055Z,18.87
2019-03-18T04:38:12.252Z,20.23
2019-03-18T04:38:43.490Z,20.37
2019-03-18T04:39:14.694Z,20.77
2019-03-18T04:39:45.914Z,20.97
2019-03-18T04:40:17.115Z,21.80
2019-03-18T04:40:48.328Z,20.77
2019-03-18T04:41:19.544Z,19.98
2019-03-18T04:41:50.749Z,21.93
2019-03-18T04:42:21.964Z,21.82
2019-03-18T04:42:53.163Z,21.87
2019-03-18T04:43:24.431Z,21.70
2019-03-18T04:43:55.645Z,21.57
2019-03-18T04:44:26.854Z,20.97
2019-03-18T04:44:58.099Z,20.60
2019-03-18T04:45:29.291Z,21.30
2019-03-18T04:46:00.497Z,20.05
2019-03-18T04:46:31.717Z,19.73
2019-03-18T04:47:13.741Z,19.77
2019-03-18T04:47:35.866Z,19.00
2019-03-18T04:48:07.074Z,16.55
2019-03-18T04:48:38.315Z,16.07
2019-03-18T04:49:09.527Z,15.78
2019-03-18T04:49:40.725Z,15.25
2019-03-18T04:50:11.983Z,16.42
2019-03-18T04:50:43.188Z,14.05
2019-03-18T04:51:14.474Z,14.83
2019-03-18T04:51:45.692Z,15.38
2019-03-18T04:52:16.897Z,14.40
2019-03-18T04:52:48.090Z,14.93
2019-03-18T04:53:19.301Z,15.00
2019-03-18T04:53:50.514Z,15.30
2019-03-18T04:54:21.725Z,14.68
2019-03-18T04:54:52.924Z,15.63
2019-03-18T04:55:24.181Z,15.95
2019-03-18T04:55:55.393Z,14.38
2019-03-18T04:56:26.608Z,14.15
2019-03-18T04:56:57.853Z,15.08
2019-03-18T04:57:29.093Z,13.75
2019-03-18T04:58:00.319Z,13.28
2019-03-18T04:58:31.524Z,14.95
2019-03-18T04:59:02.731Z,14.20
2019-03-18T04:59:33.928Z,14.75
2019-03-18T05:00:05.153Z,14.50
2019-03-18T05:00:36.397Z,14.30
2019-03-18T05:01:07.637Z,14.47
2019-03-18T05:01:38.844Z,14.50
2019-03-18T05:02:10.047Z,14.93
2019-03-18T05:02:41.255Z,14.05
2019-03-18T05:03:12.472Z,14.30
2019-03-18T05:03:43.669Z,16.12
2019-03-18T05:04:14.892Z,13.70
2019-03-18T05:04:46.177Z,13.50
2019-03-18T05:05:17.448Z,13.65
2019-03-18T05:05:48.651Z,12.43
2019-03-18T05:06:19.869Z,13.70
2019-03-18T05:06:51.092Z,12.95
2019-03-18T05:07:22.294Z,13.43
2019-03-18T05:07:53.492Z,12.88
2019-03-18T05:08:24.697Z,12.03
2019-03-18T05:08:55.935Z,12.78
2019-03-18T05:09:27.146Z,13.80
2019-03-18T05:09:58.361Z,14.43
2019-03-18T05:10:29.612Z,15.03
2019-03-18T05:11:00.824Z,14.23
2019-03-18T05:11:32.022Z,12.85
2019-03-18T05:12:03.241Z,13.13
2019-03-18T05:12:34.449Z,14.13
2019-03-18T05:13:05.689Z,14.13
2019-03-18T05:13:36.952Z,15.88
2019-03-18T05:14:08.121Z,16.48
2019-03-18T05:14:39.335Z,15.45
2019-03-18T05:15:10.531Z,17.00
2019-03-18T05:15:41.848Z,15.78
2019-03-18T05:16:13.054Z,15.30
2019-03-18T05:16:44.282Z,15.70
2019-03-18T05:17:26.117Z,15.90
2019-03-18T05:17:48.426Z,15.48
2019-03-18T05:18:19.629Z,15.93
2019-03-18T05:18:50.838Z,15.35
2019-03-18T05:19:22.048Z,15.23
2019-03-18T05:19:53.240Z,13.90
2019-03-18T05:20:24.464Z,14.43
2019-03-18T05:20:55.705Z,13.58
2019-03-18T05:21:27.039Z,13.28
2019-03-18T05:21:58.239Z,12.65
2019-03-18T05:22:29.478Z,12.95
2019-03-18T05:23:00.703Z,13.43
2019-03-18T05:23:31.907Z,13.43
2019-03-18T05:24:03.170Z,13.65
2019-03-18T05:24:34.343Z,13.10
2019-03-18T05:25:05.560Z,13.38
2019-03-18T05:25:36.794Z,13.80
2019-03-18T05:26:07.993Z,13.45
2019-03-18T05:26:39.203Z,13.32
2019-03-18T05:27:10.422Z,13.55
2019-03-18T05:27:41.663Z,13.30
2019-03-18T05:28:12.873Z,13.05
2019-03-18T05:28:44.091Z,13.15
2019-03-18T05:29:15.285Z,13.65
2019-03-18T05:29:46.499Z,13.30
2019-03-18T05:30:17.706Z,13.40
2019-03-18T05:30:48.903Z,15.83
2019-03-18T05:31:20.103Z,14.58
2019-03-18T05:31:51.322Z,15.38
2019-03-18T05:32:22.536Z,14.25
2019-03-18T05:32:53.797Z,13.18
2019-03-18T05:33:25.022Z,13.68
2019-03-18T05:33:56.279Z,13.95
2019-03-18T05:34:27.480Z,13.75
2019-03-18T05:34:58.691Z,13.32
2019-03-18T05:35:29.892Z,13.13
2019-03-18T05:36:02.052Z,13.40
2019-03-18T05:36:33.268Z,13.28
2019-03-18T05:37:04.494Z,13.25
2019-03-18T05:37:35.729Z,13.50
2019-03-18T05:38:06.937Z,13.55
2019-03-18T05:38:38.175Z,13.78
2019-03-18T05:39:09.418Z,12.68
2019-03-18T05:39:40.639Z,13.40
2019-03-18T05:40:11.874Z,14.33
2019-03-18T05:40:43.075Z,14.10
2019-03-18T05:41:14.320Z,13.35
2019-03-18T05:41:45.493Z,13.08
2019-03-18T05:42:16.684Z,13.15
2019-03-18T05:42:47.924Z,13.75
2019-03-18T05:43:19.148Z,14.35
2019-03-18T05:43:50.361Z,15.15
2019-03-18T05:44:21.560Z,13.48
2019-03-18T05:44:52.763Z,13.85
2019-03-18T05:45:24.025Z,12.05
2019-03-18T05:45:55.257Z,13.05
2019-03-18T05:46:26.476Z,13.40
2019-03-18T05:46:57.678Z,13.65
2019-03-18T05:47:38.539Z,13.20
2019-03-18T05:48:01.844Z,13.60
2019-03-18T05:48:33.047Z,13.90
2019-03-18T05:49:04.248Z,13.00
2019-03-18T05:49:35.459Z,13.70
2019-03-18T05:50:06.670Z,13.68
2019-03-18T05:50:37.914Z,13.58
2019-03-18T05:51:09.135Z,13.05
2019-03-18T05:51:40.387Z,13.43
2019-03-18T05:52:11.585Z,14.80
2019-03-18T05:52:42.805Z,14.35
2019-03-18T05:53:14.008Z,14.83
2019-03-18T05:53:45.230Z,14.43
2019-03-18T05:54:16.439Z,14.38
2019-03-18T05:54:47.637Z,14.35
2019-03-18T05:55:18.841Z,13.85
2019-03-18T05:55:50.101Z,14.38
2019-03-18T05:56:21.298Z,15.00
2019-03-18T05:56:52.499Z,14.78
2019-03-18T05:57:25.911Z,13.80
2019-03-18T05:57:56.644Z,14.70
2019-03-18T05:58:27.891Z,13.50
2019-03-18T05:58:59.086Z,15.20
2019-03-18T05:59:30.305Z,13.72
2019-03-18T06:00:01.518Z,12.90
2019-03-18T06:00:32.727Z,13.00
2019-03-18T06:01:03.955Z,14.03
2019-03-18T06:01:35.164Z,14.20
2019-03-18T06:02:06.367Z,13.58
2019-03-18T06:02:37.560Z,14.13
2019-03-18T06:03:08.777Z,14.65
2019-03-18T06:03:40.001Z,14.23
2019-03-18T06:04:11.247Z,14.13
2019-03-18T06:04:42.520Z,14.80
2019-03-18T06:05:13.737Z,14.40
2019-03-18T06:05:44.941Z,14.80
2019-03-18T06:06:16.163Z,13.50
2019-03-18T06:06:47.376Z,14.07
2019-03-18T06:07:18.574Z,13.93
2019-03-18T06:07:49.785Z,13.98
2019-03-18T06:08:21.001Z,14.00
2019-03-18T06:08:52.194Z,13.88
2019-03-18T06:09:23.415Z,13.43
2019-03-18T06:09:54.684Z,13.70
2019-03-18T06:10:26.067Z,13.88
2019-03-18T06:10:57.298Z,14.20
2019-03-18T06:11:28.506Z,14.03
2019-03-18T06:11:59.728Z,14.18
2019-03-18T06:12:30.961Z,14.33
2019-03-18T06:13:02.195Z,14.70
2019-03-18T06:13:33.399Z,14.18
2019-03-18T06:14:04.599Z,14.30
2019-03-18T06:14:35.810Z,13.65
2019-03-18T06:15:07.034Z,14.20
2019-03-18T06:15:38.279Z,14.33
2019-03-18T06:16:09.508Z,14.75
2019-03-18T06:16:40.710Z,13.93
2019-03-18T06:17:11.921Z,14.45
2019-03-18T06:17:52.080Z,12.95
2019-03-18T06:18:16.084Z,13.05
2019-03-18T06:18:47.302Z,13.22
2019-03-18T06:19:18.510Z,13.30
2019-03-18T06:19:49.714Z,12.00
2019-03-18T06:20:20.968Z,13.22
2019-03-18T06:20:52.232Z,13.62
2019-03-18T06:21:23.503Z,12.78
2019-03-18T06:21:54.726Z,12.30
2019-03-18T06:22:25.944Z,13.65
2019-03-18T06:22:57.156Z,13.60
2019-03-18T06:23:28.405Z,13.22
2019-03-18T06:23:59.623Z,14.33
2019-03-18T06:24:30.882Z,15.13
2019-03-18T06:25:02.105Z,14.70
2019-03-18T06:25:33.365Z,14.28
2019-03-18T06:26:04.627Z,14.53
2019-03-18T06:26:35.876Z,15.25
2019-03-18T06:27:07.093Z,15.25
2019-03-18T06:27:38.305Z,14.83
2019-03-18T06:28:09.525Z,14.93
2019-03-18T06:28:40.740Z,14.50
2019-03-18T06:29:11.970Z,13.80
2019-03-18T06:29:43.183Z,15.10
2019-03-18T06:30:14.395Z,14.87
2019-03-18T06:30:45.640Z,14.60
2019-03-18T06:31:16.874Z,14.43
2019-03-18T06:31:48.483Z,14.23
2019-03-18T06:32:19.725Z,15.18
2019-03-18T06:32:50.940Z,13.78
2019-03-18T06:33:22.144Z,14.00
2019-03-18T06:33:53.381Z,13.93
2019-03-18T06:34:24.599Z,13.18
2019-03-18T06:34:55.807Z,13.58
2019-03-18T06:35:27.006Z,13.18
2019-03-18T06:35:58.255Z,14.35
2019-03-18T06:36:29.516Z,13.88
2019-03-18T06:37:00.728Z,14.47
2019-03-18T06:37:31.936Z,14.58
2019-03-18T06:38:03.135Z,14.38
2019-03-18T06:38:34.383Z,14.73
2019-03-18T06:39:05.583Z,14.03
2019-03-18T06:39:36.779Z,14.18
2019-03-18T06:40:07.992Z,13.88
2019-03-18T06:40:39.211Z,14.73
2019-03-18T06:41:10.419Z,14.53
2019-03-18T06:41:41.669Z,14.85
2019-03-18T06:42:12.878Z,13.83
2019-03-18T06:42:44.116Z,13.72
2019-03-18T06:43:15.339Z,13.35
2019-03-18T06:43:46.555Z,14.00
2019-03-18T06:44:17.752Z,14.75
2019-03-18T06:44:48.955Z,15.55